KCDJ

Chillicothe Agri-Science Center Airport

Chillicothe, Missouri, USA
METAR KCDJ 171352Z AUTO 00000KT M04/M06 A3032 RMK AO1 SLP279 T10441061
Observed Flight Rules
Dec-17 @ 13:52 UTC (36 minutes ago)
Temperatures Readings
Current -4°C / 25°F
Dewpoint -6°C / 21°F
Humidity 86%
Altimeter 30.32" Hg
Pressure 1027.9 hPa
Elevation 234
METAR KCDJ 171352Z AUTO 00000KT M04/M06 A3032 RMK AO1 SLP279 T10441061
Observed Flight Rules
Dec-17 @ 13:52 UTC
(36 minutes ago)
Temperature Dewpoint
-4°C / 25°F -6°C / 21°F
Humidity Altimeter Pressure
86% 30.32" Hg 1027.9 hPa